sensor_id;sensor_type;location;lat;lon;timestamp;P1;P2;P0
79141;PMS5003;68550;-26.480;29.234;2023-05-07T00:00:33;16;16;
79141;PMS5003;68550;-26.480;29.234;2023-05-07T00:02:58;18;18;
79141;PMS5003;68550;-26.480;29.234;2023-05-07T00:05:24;21;20;
79141;PMS5003;68550;-26.480;29.234;2023-05-07T00:07:49;19;18;
79141;PMS5003;68550;-26.480;29.234;2023-05-07T00:12:40;15;15;
79141;PMS5003;68550;-26.480;29.234;2023-05-07T00:15:06;19;18;
79141;PMS5003;68550;-26.480;29.234;2023-05-07T00:17:31;18;18;
79141;PMS5003;68550;-26.480;29.234;2023-05-07T00:19:56;18;18;
79141;PMS5003;68550;-26.480;29.234;2023-05-07T00:22:23;18;18;
79141;PMS5003;68550;-26.480;29.234;2023-05-07T00:24:46;20;18;
79141;PMS5003;68550;-26.480;29.234;2023-05-07T00:27:12;17;17;
79141;PMS5003;68550;-26.480;29.234;2023-05-07T00:32:16;18;18;
79141;PMS5003;68550;-26.480;29.234;2023-05-07T00:34:28;21;21;
79141;PMS5003;68550;-26.480;29.234;2023-05-07T00:36:53;15;15;
79141;PMS5003;68550;-26.480;29.234;2023-05-07T00:39:19;15;15;
79141;PMS5003;68550;-26.480;29.234;2023-05-07T00:41:47;21;21;
79141;PMS5003;68550;-26.480;29.234;2023-05-07T00:44:11;18;18;
79141;PMS5003;68550;-26.480;29.234;2023-05-07T00:46:36;18;18;
79141;PMS5003;68550;-26.480;29.234;2023-05-07T00:51:27;18;17;
79141;PMS5003;68550;-26.480;29.234;2023-05-07T00:56:18;16;16;
79141;PMS5003;68550;-26.480;29.234;2023-05-07T00:58:43;18;17;
79141;PMS5003;68550;-26.480;29.234;2023-05-07T01:01:08;15;15;
79141;PMS5003;68550;-26.480;29.234;2023-05-07T01:05:13;9;9;
79141;PMS5003;68550;-26.480;29.234;2023-05-07T01:07:41;16;15;
79141;PMS5003;68550;-26.480;29.234;2023-05-07T01:10:09;19;19;
79141;PMS5003;68550;-26.480;29.234;2023-05-07T01:12:32;15;15;
79141;PMS5003;68550;-26.480;29.234;2023-05-07T01:14:57;13;13;
79141;PMS5003;68550;-26.480;29.234;2023-05-07T01:17:23;15;15;
79141;PMS5003;68550;-26.480;29.234;2023-05-07T01:19:48;17;16;
79141;PMS5003;68550;-26.480;29.234;2023-05-07T01:22:13;16;16;
79141;PMS5003;68550;-26.480;29.234;2023-05-07T01:24:39;18;18;
79141;PMS5003;68550;-26.480;29.234;2023-05-07T01:27:04;18;17;
79141;PMS5003;68550;-26.480;29.234;2023-05-07T01:29:29;23;23;
79141;PMS5003;68550;-26.480;29.234;2023-05-07T01:31:55;19;19;
79141;PMS5003;68550;-26.480;29.234;2023-05-07T01:34:20;17;17;
79141;PMS5003;68550;-26.480;29.234;2023-05-07T01:36:45;20;20;
79141;PMS5003;68550;-26.480;29.234;2023-05-07T01:39:11;15;15;
79141;PMS5003;68550;-26.480;29.234;2023-05-07T01:41:36;19;19;
79141;PMS5003;68550;-26.480;29.234;2023-05-07T01:44:02;18;18;
79141;PMS5003;68550;-26.480;29.234;2023-05-07T01:46:30;17;17;
79141;PMS5003;68550;-26.480;29.234;2023-05-07T01:48:53;16;16;
79141;PMS5003;68550;-26.480;29.234;2023-05-07T01:51:19;21;20;
79141;PMS5003;68550;-26.480;29.234;2023-05-07T01:53:43;17;17;
79141;PMS5003;68550;-26.480;29.234;2023-05-07T01:56:09;19;18;
79141;PMS5003;68550;-26.480;29.234;2023-05-07T01:58:34;19;19;
79141;PMS5003;68550;-26.480;29.234;2023-05-07T02:00:59;15;15;
79141;PMS5003;68550;-26.480;29.234;2023-05-07T02:03:27;15;15;
79141;PMS5003;68550;-26.480;29.234;2023-05-07T02:05:50;17;17;
79141;PMS5003;68550;-26.480;29.234;2023-05-07T02:08:15;20;20;
79141;PMS5003;68550;-26.480;29.234;2023-05-07T02:10:43;17;17;
79141;PMS5003;68550;-26.480;29.234;2023-05-07T02:13:06;19;19;
79141;PMS5003;68550;-26.480;29.234;2023-05-07T02:15:31;17;17;
79141;PMS5003;68550;-26.480;29.234;2023-05-07T02:17:58;16;16;
79141;PMS5003;68550;-26.480;29.234;2023-05-07T02:20:22;17;17;
79141;PMS5003;68550;-26.480;29.234;2023-05-07T02:22:47;19;19;
79141;PMS5003;68550;-26.480;29.234;2023-05-07T02:25:13;19;18;
79141;PMS5003;68550;-26.480;29.234;2023-05-07T02:27:38;17;17;
79141;PMS5003;68550;-26.480;29.234;2023-05-07T02:30:04;15;15;
79141;PMS5003;68550;-26.480;29.234;2023-05-07T02:32:29;18;18;
79141;PMS5003;68550;-26.480;29.234;2023-05-07T02:34:54;20;20;
79141;PMS5003;68550;-26.480;29.234;2023-05-07T02:37:19;21;21;
79141;PMS5003;68550;-26.480;29.234;2023-05-07T02:39:45;16;16;
79141;PMS5003;68550;-26.480;29.234;2023-05-07T02:42:12;14;14;
79141;PMS5003;68550;-26.480;29.234;2023-05-07T02:44:36;15;15;
79141;PMS5003;68550;-26.480;29.234;2023-05-07T02:47:01;15;15;
79141;PMS5003;68550;-26.480;29.234;2023-05-07T02:49:26;15;15;
79141;PMS5003;68550;-26.480;29.234;2023-05-07T02:51:52;18;18;
79141;PMS5003;68550;-26.480;29.234;2023-05-07T02:54:17;15;14;
79141;PMS5003;68550;-26.480;29.234;2023-05-07T02:56:42;19;18;
79141;PMS5003;68550;-26.480;29.234;2023-05-07T02:59:10;17;16;
79141;PMS5003;68550;-26.480;29.234;2023-05-07T03:01:33;19;19;
79141;PMS5003;68550;-26.480;29.234;2023-05-07T03:03:58;16;16;
79141;PMS5003;68550;-26.480;29.234;2023-05-07T03:06:24;17;17;
79141;PMS5003;68550;-26.480;29.234;2023-05-07T03:08:49;16;16;
79141;PMS5003;68550;-26.480;29.234;2023-05-07T03:11:14;17;17;
79141;PMS5003;68550;-26.480;29.234;2023-05-07T03:13:40;18;18;
79141;PMS5003;68550;-26.480;29.234;2023-05-07T03:16:06;18;16;
79141;PMS5003;68550;-26.480;29.234;2023-05-07T03:18:31;17;17;
79141;PMS5003;68550;-26.480;29.234;2023-05-07T03:20:56;16;16;
79141;PMS5003;68550;-26.480;29.234;2023-05-07T03:23:22;18;17;
79141;PMS5003;68550;-26.480;29.234;2023-05-07T03:25:47;18;18;
79141;PMS5003;68550;-26.480;29.234;2023-05-07T03:28:12;17;17;
79141;PMS5003;68550;-26.480;29.234;2023-05-07T03:30:40;17;17;
79141;PMS5003;68550;-26.480;29.234;2023-05-07T03:33:03;22;22;
79141;PMS5003;68550;-26.480;29.234;2023-05-07T03:35:28;16;16;
79141;PMS5003;68550;-26.480;29.234;2023-05-07T03:37:54;18;18;
79141;PMS5003;68550;-26.480;29.234;2023-05-07T03:40:19;19;18;
79141;PMS5003;68550;-26.480;29.234;2023-05-07T03:42:46;19;18;
79141;PMS5003;68550;-26.480;29.234;2023-05-07T03:45:10;18;18;
79141;PMS5003;68550;-26.480;29.234;2023-05-07T03:47:35;20;19;
79141;PMS5003;68550;-26.480;29.234;2023-05-07T03:50:01;18;18;
79141;PMS5003;68550;-26.480;29.234;2023-05-07T03:52:26;17;17;
79141;PMS5003;68550;-26.480;29.234;2023-05-07T03:54:51;22;21;
79141;PMS5003;68550;-26.480;29.234;2023-05-07T03:57:16;20;20;
79141;PMS5003;68550;-26.480;29.234;2023-05-07T03:59:42;19;18;
79141;PMS5003;68550;-26.480;29.234;2023-05-07T04:02:08;17;17;
79141;PMS5003;68550;-26.480;29.234;2023-05-07T04:04:34;17;17;
79141;PMS5003;68550;-26.480;29.234;2023-05-07T04:06:59;20;19;
79141;PMS5003;68550;-26.480;29.234;2023-05-07T04:09:26;20;20;
79141;PMS5003;68550;-26.480;29.234;2023-05-07T04:11:49;19;19;
79141;PMS5003;68550;-26.480;29.234;2023-05-07T04:14:14;17;17;
79141;PMS5003;68550;-26.480;29.234;2023-05-07T04:16:40;19;19;
79141;PMS5003;68550;-26.480;29.234;2023-05-07T04:19:06;16;16;
79141;PMS5003;68550;-26.480;29.234;2023-05-07T04:21:31;22;22;
79141;PMS5003;68550;-26.480;29.234;2023-05-07T04:23:56;19;19;
79141;PMS5003;68550;-26.480;29.234;2023-05-07T04:26:22;17;16;
79141;PMS5003;68550;-26.480;29.234;2023-05-07T04:28:47;17;16;
79141;PMS5003;68550;-26.480;29.234;2023-05-07T04:31:12;16;16;
79141;PMS5003;68550;-26.480;29.234;2023-05-07T04:33:38;19;19;
79141;PMS5003;68550;-26.480;29.234;2023-05-07T04:36:03;20;20;
79141;PMS5003;68550;-26.480;29.234;2023-05-07T04:38:28;19;19;
79141;PMS5003;68550;-26.480;29.234;2023-05-07T04:40:54;17;17;
79141;PMS5003;68550;-26.480;29.234;2023-05-07T04:43:19;20;18;
79141;PMS5003;68550;-26.480;29.234;2023-05-07T04:45:46;16;16;
79141;PMS5003;68550;-26.480;29.234;2023-05-07T04:48:10;19;18;
79141;PMS5003;68550;-26.480;29.234;2023-05-07T04:50:35;17;17;
79141;PMS5003;68550;-26.480;29.234;2023-05-07T04:52:59;20;20;
79141;PMS5003;68550;-26.480;29.234;2023-05-07T04:55:25;18;18;
79141;PMS5003;68550;-26.480;29.234;2023-05-07T04:57:51;17;17;
79141;PMS5003;68550;-26.480;29.234;2023-05-07T05:00:16;18;18;
79141;PMS5003;68550;-26.480;29.234;2023-05-07T05:02:41;17;17;
79141;PMS5003;68550;-26.480;29.234;2023-05-07T05:05:07;16;16;
79141;PMS5003;68550;-26.480;29.234;2023-05-07T05:07:32;18;17;
79141;PMS5003;68550;-26.480;29.234;2023-05-07T05:09:58;18;17;
79141;PMS5003;68550;-26.480;29.234;2023-05-07T05:12:23;17;17;
79141;PMS5003;68550;-26.480;29.234;2023-05-07T05:14:49;16;16;
79141;PMS5003;68550;-26.480;29.234;2023-05-07T05:17:14;19;19;
79141;PMS5003;68550;-26.480;29.234;2023-05-07T05:19:39;22;22;
79141;PMS5003;68550;-26.480;29.234;2023-05-07T05:22:05;16;16;
79141;PMS5003;68550;-26.480;29.234;2023-05-07T05:24:33;22;22;
79141;PMS5003;68550;-26.480;29.234;2023-05-07T05:26:56;17;17;
79141;PMS5003;68550;-26.480;29.234;2023-05-07T05:29:22;20;19;
79141;PMS5003;68550;-26.480;29.234;2023-05-07T05:31:47;16;16;
79141;PMS5003;68550;-26.480;29.234;2023-05-07T05:34:13;21;20;
79141;PMS5003;68550;-26.480;29.234;2023-05-07T05:36:39;21;21;
79141;PMS5003;68550;-26.480;29.234;2023-05-07T05:39:04;27;27;
79141;PMS5003;68550;-26.480;29.234;2023-05-07T05:41:30;33;33;
79141;PMS5003;68550;-26.480;29.234;2023-05-07T05:43:54;35;34;
79141;PMS5003;68550;-26.480;29.234;2023-05-07T05:46:20;38;37;
79141;PMS5003;68550;-26.480;29.234;2023-05-07T05:48:46;38;37;
79141;PMS5003;68550;-26.480;29.234;2023-05-07T05:51:12;31;31;
79141;PMS5003;68550;-26.480;29.234;2023-05-07T05:53:36;28;28;
79141;PMS5003;68550;-26.480;29.234;2023-05-07T05:56:02;32;31;
79141;PMS5003;68550;-26.480;29.234;2023-05-07T05:58:27;32;31;
79141;PMS5003;68550;-26.480;29.234;2023-05-07T06:00:56;29;29;
79141;PMS5003;68550;-26.480;29.234;2023-05-07T06:03:18;27;27;
79141;PMS5003;68550;-26.480;29.234;2023-05-07T06:05:44;23;23;
79141;PMS5003;68550;-26.480;29.234;2023-05-07T06:08:09;25;25;
79141;PMS5003;68550;-26.480;29.234;2023-05-07T06:10:35;24;23;
79141;PMS5003;68550;-26.480;29.234;2023-05-07T06:13:00;24;24;
79141;PMS5003;68550;-26.480;29.234;2023-05-07T06:15:27;22;22;
79141;PMS5003;68550;-26.480;29.234;2023-05-07T06:17:50;18;18;
79141;PMS5003;68550;-26.480;29.234;2023-05-07T06:20:16;18;18;
79141;PMS5003;68550;-26.480;29.234;2023-05-07T06:22:42;17;17;
79141;PMS5003;68550;-26.480;29.234;2023-05-07T06:25:08;20;20;
79141;PMS5003;68550;-26.480;29.234;2023-05-07T06:27:32;14;14;
79141;PMS5003;68550;-26.480;29.234;2023-05-07T06:29:58;17;17;
79141;PMS5003;68550;-26.480;29.234;2023-05-07T06:32:23;14;14;
79141;PMS5003;68550;-26.480;29.234;2023-05-07T06:34:49;17;17;
79141;PMS5003;68550;-26.480;29.234;2023-05-07T06:37:14;12;12;
79141;PMS5003;68550;-26.480;29.234;2023-05-07T06:39:39;13;11;
79141;PMS5003;68550;-26.480;29.234;2023-05-07T06:42:07;13;13;
79141;PMS5003;68550;-26.480;29.234;2023-05-07T06:44:30;15;14;
79141;PMS5003;68550;-26.480;29.234;2023-05-07T06:46:56;12;12;
79141;PMS5003;68550;-26.480;29.234;2023-05-07T06:49:21;13;13;
79141;PMS5003;68550;-26.480;29.234;2023-05-07T06:51:46;10;10;
79141;PMS5003;68550;-26.480;29.234;2023-05-07T06:54:11;9;9;
79141;PMS5003;68550;-26.480;29.234;2023-05-07T06:56:37;11;11;
79141;PMS5003;68550;-26.480;29.234;2023-05-07T06:59:02;9;9;
79141;PMS5003;68550;-26.480;29.234;2023-05-07T07:04:14;8;8;
79141;PMS5003;68550;-26.480;29.234;2023-05-07T07:06:39;9;9;
79141;PMS5003;68550;-26.480;29.234;2023-05-07T07:09:04;11;10;
79141;PMS5003;68550;-26.480;29.234;2023-05-07T07:11:30;6;6;
79141;PMS5003;68550;-26.480;29.234;2023-05-07T07:13:57;7;7;
79141;PMS5003;68550;-26.480;29.234;2023-05-07T07:16:20;6;6;
79141;PMS5003;68550;-26.480;29.234;2023-05-07T07:18:46;6;6;
79141;PMS5003;68550;-26.480;29.234;2023-05-07T07:21:11;7;7;
79141;PMS5003;68550;-26.480;29.234;2023-05-07T07:23:41;5;5;
79141;PMS5003;68550;-26.480;29.234;2023-05-07T07:26:02;8;8;
79141;PMS5003;68550;-26.480;29.234;2023-05-07T07:30:53;5;5;
79141;PMS5003;68550;-26.480;29.234;2023-05-07T07:40:34;6;5;
79141;PMS5003;68550;-26.480;29.234;2023-05-07T07:43:00;6;6;
79141;PMS5003;68550;-26.480;29.234;2023-05-07T07:45:25;5;5;
79141;PMS5003;68550;-26.480;29.234;2023-05-07T07:47:50;4;4;
79141;PMS5003;68550;-26.480;29.234;2023-05-07T07:57:33;5;5;
79141;PMS5003;68550;-26.480;29.234;2023-05-07T08:04:48;4;4;
79141;PMS5003;68550;-26.480;29.234;2023-05-07T08:07:14;4;3;
79141;PMS5003;68550;-26.480;29.234;2023-05-07T08:09:39;4;4;
79141;PMS5003;68550;-26.480;29.234;2023-05-07T08:12:05;2;2;
79141;PMS5003;68550;-26.480;29.234;2023-05-07T08:14:30;2;2;
79141;PMS5003;68550;-26.480;29.234;2023-05-07T08:19:21;3;3;
79141;PMS5003;68550;-26.480;29.234;2023-05-07T08:21:48;2;2;
79141;PMS5003;68550;-26.480;29.234;2023-05-07T08:24:12;2;2;
79141;PMS5003;68550;-26.480;29.234;2023-05-07T08:26:37;4;3;
79141;PMS5003;68550;-26.480;29.234;2023-05-07T08:29:07;3;3;
79141;PMS5003;68550;-26.480;29.234;2023-05-07T08:31:29;4;4;
79141;PMS5003;68550;-26.480;29.234;2023-05-07T08:33:58;3;3;
79141;PMS5003;68550;-26.480;29.234;2023-05-07T08:36:18;1;1;
79141;PMS5003;68550;-26.480;29.234;2023-05-07T08:38:44;2;2;
79141;PMS5003;68550;-26.480;29.234;2023-05-07T08:41:10;2;2;
79141;PMS5003;68550;-26.480;29.234;2023-05-07T08:43:36;3;3;
79141;PMS5003;68550;-26.480;29.234;2023-05-07T08:46:00;3;3;
79141;PMS5003;68550;-26.480;29.234;2023-05-07T08:48:26;3;3;
79141;PMS5003;68550;-26.480;29.234;2023-05-07T08:50:51;2;2;
79141;PMS5003;68550;-26.480;29.234;2023-05-07T08:53:18;2;2;
79141;PMS5003;68550;-26.480;29.234;2023-05-07T08:55:45;2;2;
79141;PMS5003;68550;-26.480;29.234;2023-05-07T08:58:08;3;3;
79141;PMS5003;68550;-26.480;29.234;2023-05-07T09:00:33;3;3;
79141;PMS5003;68550;-26.480;29.234;2023-05-07T09:02:59;4;4;
79141;PMS5003;68550;-26.480;29.234;2023-05-07T09:05:23;4;4;
79141;PMS5003;68550;-26.480;29.234;2023-05-07T09:08:02;3;3;
79141;PMS5003;68550;-26.480;29.234;2023-05-07T09:10:26;3;3;
79141;PMS5003;68550;-26.480;29.234;2023-05-07T09:12:52;3;3;
79141;PMS5003;68550;-26.480;29.234;2023-05-07T09:15:17;3;3;
79141;PMS5003;68550;-26.480;29.234;2023-05-07T09:17:43;6;5;
79141;PMS5003;68550;-26.480;29.234;2023-05-07T09:20:08;5;5;
79141;PMS5003;68550;-26.480;29.234;2023-05-07T09:22:34;3;3;
79141;PMS5003;68550;-26.480;29.234;2023-05-07T09:24:59;4;4;
79141;PMS5003;68550;-26.480;29.234;2023-05-07T09:27:24;3;3;
79141;PMS5003;68550;-26.480;29.234;2023-05-07T09:29:50;4;4;
79141;PMS5003;68550;-26.480;29.234;2023-05-07T09:32:15;5;5;
79141;PMS5003;68550;-26.480;29.234;2023-05-07T09:34:42;4;4;
79141;PMS5003;68550;-26.480;29.234;2023-05-07T09:37:06;5;5;
79141;PMS5003;68550;-26.480;29.234;2023-05-07T09:41:58;5;5;
79141;PMS5003;68550;-26.480;29.234;2023-05-07T09:44:22;5;5;
79141;PMS5003;68550;-26.480;29.234;2023-05-07T09:46:49;4;4;
79141;PMS5003;68550;-26.480;29.234;2023-05-07T09:49:18;3;3;
79141;PMS5003;68550;-26.480;29.234;2023-05-07T09:51:40;3;3;
79141;PMS5003;68550;-26.480;29.234;2023-05-07T09:54:04;4;4;
79141;PMS5003;68550;-26.480;29.234;2023-05-07T09:56:29;4;4;
79141;PMS5003;68550;-26.480;29.234;2023-05-07T09:58:55;4;4;
79141;PMS5003;68550;-26.480;29.234;2023-05-07T10:01:20;4;4;
79141;PMS5003;68550;-26.480;29.234;2023-05-07T10:03:46;3;3;
79141;PMS5003;68550;-26.480;29.234;2023-05-07T10:06:11;4;4;
79141;PMS5003;68550;-26.480;29.234;2023-05-07T10:08:37;3;3;
79141;PMS5003;68550;-26.480;29.234;2023-05-07T10:11:03;4;4;
79141;PMS5003;68550;-26.480;29.234;2023-05-07T10:13:29;4;4;
79141;PMS5003;68550;-26.480;29.234;2023-05-07T10:15:53;4;4;
79141;PMS5003;68550;-26.480;29.234;2023-05-07T10:18:18;3;3;
79141;PMS5003;68550;-26.480;29.234;2023-05-07T10:20:43;3;3;
79141;PMS5003;68550;-26.480;29.234;2023-05-07T10:23:09;5;5;
79141;PMS5003;68550;-26.480;29.234;2023-05-07T10:25:35;5;4;
79141;PMS5003;68550;-26.480;29.234;2023-05-07T10:28:03;4;4;
79141;PMS5003;68550;-26.480;29.234;2023-05-07T10:30:30;4;4;
79141;PMS5003;68550;-26.480;29.234;2023-05-07T10:32:51;4;4;
79141;PMS5003;68550;-26.480;29.234;2023-05-07T10:35:17;4;4;
79141;PMS5003;68550;-26.480;29.234;2023-05-07T10:37:42;3;3;
79141;PMS5003;68550;-26.480;29.234;2023-05-07T10:40:07;3;3;
79141;PMS5003;68550;-26.480;29.234;2023-05-07T10:42:32;4;4;
79141;PMS5003;68550;-26.480;29.234;2023-05-07T10:44:58;4;3;
79141;PMS5003;68550;-26.480;29.234;2023-05-07T10:47:23;3;3;
79141;PMS5003;68550;-26.480;29.234;2023-05-07T10:52:15;6;5;
79141;PMS5003;68550;-26.480;29.234;2023-05-07T10:54:39;3;3;
79141;PMS5003;68550;-26.480;29.234;2023-05-07T10:59:31;4;4;
79141;PMS5003;68550;-26.480;29.234;2023-05-07T11:01:56;4;4;
79141;PMS5003;68550;-26.480;29.234;2023-05-07T11:04:25;4;3;
79141;PMS5003;68550;-26.480;29.234;2023-05-07T11:09:12;4;4;
79141;PMS5003;68550;-26.480;29.234;2023-05-07T11:11:45;6;6;
79141;PMS5003;68550;-26.480;29.234;2023-05-07T11:14:03;4;4;
79141;PMS5003;68550;-26.480;29.234;2023-05-07T11:16:29;5;5;
79141;PMS5003;68550;-26.480;29.234;2023-05-07T11:18:54;5;5;
79141;PMS5003;68550;-26.480;29.234;2023-05-07T11:26:10;3;3;
79141;PMS5003;68550;-26.480;29.234;2023-05-07T11:28:36;5;5;
79141;PMS5003;68550;-26.480;29.234;2023-05-07T11:31:00;5;5;
79141;PMS5003;68550;-26.480;29.234;2023-05-07T11:33:26;5;5;
79141;PMS5003;68550;-26.480;29.234;2023-05-07T11:35:52;6;6;
79141;PMS5003;68550;-26.480;29.234;2023-05-07T11:38:18;6;6;
79141;PMS5003;68550;-26.480;29.234;2023-05-07T11:43:10;6;4;
79141;PMS5003;68550;-26.480;29.234;2023-05-07T11:45:34;5;5;
79141;PMS5003;68550;-26.480;29.234;2023-05-07T11:47:58;3;3;
79141;PMS5003;68550;-26.480;29.234;2023-05-07T11:50:24;6;6;
79141;PMS5003;68550;-26.480;29.234;2023-05-07T11:52:51;6;6;
79141;PMS5003;68550;-26.480;29.234;2023-05-07T11:55:15;7;6;
79141;PMS5003;68550;-26.480;29.234;2023-05-07T11:57:40;6;5;
79141;PMS5003;68550;-26.480;29.234;2023-05-07T12:00:06;4;4;
79141;PMS5003;68550;-26.480;29.234;2023-05-07T12:02:31;5;5;
79141;PMS5003;68550;-26.480;29.234;2023-05-07T12:04:57;6;6;
79141;PMS5003;68550;-26.480;29.234;2023-05-07T12:07:22;4;4;
79141;PMS5003;68550;-26.480;29.234;2023-05-07T12:09:47;4;4;
79141;PMS5003;68550;-26.480;29.234;2023-05-07T12:12:13;3;3;
79141;PMS5003;68550;-26.480;29.234;2023-05-07T12:14:40;6;6;
79141;PMS5003;68550;-26.480;29.234;2023-05-07T12:17:03;4;4;
79141;PMS5003;68550;-26.480;29.234;2023-05-07T12:19:29;3;3;
79141;PMS5003;68550;-26.480;29.234;2023-05-07T12:21:55;5;5;
79141;PMS5003;68550;-26.480;29.234;2023-05-07T12:24:20;4;4;
79141;PMS5003;68550;-26.480;29.234;2023-05-07T12:26:50;5;5;
79141;PMS5003;68550;-26.480;29.234;2023-05-07T12:29:10;4;4;
79141;PMS5003;68550;-26.480;29.234;2023-05-07T12:31:40;5;5;
79141;PMS5003;68550;-26.480;29.234;2023-05-07T12:34:02;4;4;
79141;PMS5003;68550;-26.480;29.234;2023-05-07T12:36:27;3;3;
79141;PMS5003;68550;-26.480;29.234;2023-05-07T12:38:52;7;6;
79141;PMS5003;68550;-26.480;29.234;2023-05-07T12:41:18;3;3;
79141;PMS5003;68550;-26.480;29.234;2023-05-07T12:43:43;4;3;
79141;PMS5003;68550;-26.480;29.234;2023-05-07T12:46:08;4;3;
79141;PMS5003;68550;-26.480;29.234;2023-05-07T12:48:36;5;5;
79141;PMS5003;68550;-26.480;29.234;2023-05-07T12:51:01;4;4;
79141;PMS5003;68550;-26.480;29.234;2023-05-07T12:53:25;5;4;
79141;PMS5003;68550;-26.480;29.234;2023-05-07T12:55:51;4;4;
79141;PMS5003;68550;-26.480;29.234;2023-05-07T12:58:16;2;2;
79141;PMS5003;68550;-26.480;29.234;2023-05-07T13:00:41;4;4;
79141;PMS5003;68550;-26.480;29.234;2023-05-07T13:03:06;4;4;
79141;PMS5003;68550;-26.480;29.234;2023-05-07T13:05:32;4;4;
79141;PMS5003;68550;-26.480;29.234;2023-05-07T13:07:57;4;3;
79141;PMS5003;68550;-26.480;29.234;2023-05-07T13:10:23;5;5;
79141;PMS5003;68550;-26.480;29.234;2023-05-07T13:12:48;4;4;
79141;PMS5003;68550;-26.480;29.234;2023-05-07T13:15:13;4;4;
79141;PMS5003;68550;-26.480;29.234;2023-05-07T13:17:39;4;4;
79141;PMS5003;68550;-26.480;29.234;2023-05-07T13:20:05;4;4;
79141;PMS5003;68550;-26.480;29.234;2023-05-07T13:22:29;5;5;
79141;PMS5003;68550;-26.480;29.234;2023-05-07T13:24:55;4;4;
79141;PMS5003;68550;-26.480;29.234;2023-05-07T13:27:20;4;3;
79141;PMS5003;68550;-26.480;29.234;2023-05-07T13:29:48;6;6;
79141;PMS5003;68550;-26.480;29.234;2023-05-07T13:32:11;5;5;
79141;PMS5003;68550;-26.480;29.234;2023-05-07T13:34:37;7;6;
79141;PMS5003;68550;-26.480;29.234;2023-05-07T13:37:02;6;6;
79141;PMS5003;68550;-26.480;29.234;2023-05-07T13:39:27;6;6;
79141;PMS5003;68550;-26.480;29.234;2023-05-07T13:41:53;5;5;
79141;PMS5003;68550;-26.480;29.234;2023-05-07T13:44:20;5;5;
79141;PMS5003;68550;-26.480;29.234;2023-05-07T13:46:44;3;3;
79141;PMS5003;68550;-26.480;29.234;2023-05-07T13:49:09;6;6;
79141;PMS5003;68550;-26.480;29.234;2023-05-07T13:51:34;6;6;
79141;PMS5003;68550;-26.480;29.234;2023-05-07T13:54:00;8;8;
79141;PMS5003;68550;-26.480;29.234;2023-05-07T13:56:25;7;6;
79141;PMS5003;68550;-26.480;29.234;2023-05-07T13:58:51;5;5;
79141;PMS5003;68550;-26.480;29.234;2023-05-07T14:01:16;7;7;
79141;PMS5003;68550;-26.480;29.234;2023-05-07T14:03:41;7;7;
79141;PMS5003;68550;-26.480;29.234;2023-05-07T14:06:10;5;5;
79141;PMS5003;68550;-26.480;29.234;2023-05-07T14:08:33;6;6;
79141;PMS5003;68550;-26.480;29.234;2023-05-07T14:10:58;5;5;
79141;PMS5003;68550;-26.480;29.234;2023-05-07T14:13:23;6;6;
79141;PMS5003;68550;-26.480;29.234;2023-05-07T14:15:49;6;6;
79141;PMS5003;68550;-26.480;29.234;2023-05-07T14:18:14;8;8;
79141;PMS5003;68550;-26.480;29.234;2023-05-07T14:20:39;5;5;
79141;PMS5003;68550;-26.480;29.234;2023-05-07T14:23:05;6;6;
79141;PMS5003;68550;-26.480;29.234;2023-05-07T14:25:30;6;6;
79141;PMS5003;68550;-26.480;29.234;2023-05-07T14:27:56;7;7;
79141;PMS5003;68550;-26.480;29.234;2023-05-07T14:30:23;6;6;
79141;PMS5003;68550;-26.480;29.234;2023-05-07T14:32:47;7;7;
79141;PMS5003;68550;-26.480;29.234;2023-05-07T14:35:12;6;6;
79141;PMS5003;68550;-26.480;29.234;2023-05-07T14:37:37;6;5;
79141;PMS5003;68550;-26.480;29.234;2023-05-07T14:40:03;4;4;
79141;PMS5003;68550;-26.480;29.234;2023-05-07T14:42:28;6;6;
79141;PMS5003;68550;-26.480;29.234;2023-05-07T14:44:53;10;9;
79141;PMS5003;68550;-26.480;29.234;2023-05-07T14:47:19;6;6;
79141;PMS5003;68550;-26.480;29.234;2023-05-07T14:49:45;7;7;
79141;PMS5003;68550;-26.480;29.234;2023-05-07T14:52:10;7;7;
79141;PMS5003;68550;-26.480;29.234;2023-05-07T14:54:36;6;6;
79141;PMS5003;68550;-26.480;29.234;2023-05-07T14:57:00;6;6;
79141;PMS5003;68550;-26.480;29.234;2023-05-07T14:59:26;6;6;
79141;PMS5003;68550;-26.480;29.234;2023-05-07T15:04:04;7;7;
79141;PMS5003;68550;-26.480;29.234;2023-05-07T15:06:52;5;5;
79141;PMS5003;68550;-26.480;29.234;2023-05-07T15:08:54;7;7;
79141;PMS5003;68550;-26.480;29.234;2023-05-07T15:11:33;5;5;
79141;PMS5003;68550;-26.480;29.234;2023-05-07T15:16:10;6;6;
79141;PMS5003;68550;-26.480;29.234;2023-05-07T15:18:36;7;7;
79141;PMS5003;68550;-26.480;29.234;2023-05-07T15:21:01;6;6;
79141;PMS5003;68550;-26.480;29.234;2023-05-07T15:23:27;9;9;
79141;PMS5003;68550;-26.480;29.234;2023-05-07T15:25:52;6;6;
79141;PMS5003;68550;-26.480;29.234;2023-05-07T15:28:18;5;5;
79141;PMS5003;68550;-26.480;29.234;2023-05-07T15:30:43;5;5;
79141;PMS5003;68550;-26.480;29.234;2023-05-07T15:54:56;5;5;
79141;PMS5003;68550;-26.480;29.234;2023-05-07T15:57:22;7;7;
79141;PMS5003;68550;-26.480;29.234;2023-05-07T15:59:49;5;5;
79141;PMS5003;68550;-26.480;29.234;2023-05-07T16:02:25;7;7;
79141;PMS5003;68550;-26.480;29.234;2023-05-07T16:09:29;6;6;
79141;PMS5003;68550;-26.480;29.234;2023-05-07T16:12:04;6;6;
79141;PMS5003;68550;-26.480;29.234;2023-05-07T16:14:19;9;8;
79141;PMS5003;68550;-26.480;29.234;2023-05-07T16:16:46;8;6;
79141;PMS5003;68550;-26.480;29.234;2023-05-07T16:19:11;6;6;
79141;PMS5003;68550;-26.480;29.234;2023-05-07T16:21:38;4;4;
79141;PMS5003;68550;-26.480;29.234;2023-05-07T16:24:03;7;7;
79141;PMS5003;68550;-26.480;29.234;2023-05-07T16:26:30;6;6;
79141;PMS5003;68550;-26.480;29.234;2023-05-07T16:28:52;7;6;
79141;PMS5003;68550;-26.480;29.234;2023-05-07T16:31:18;6;6;
79141;PMS5003;68550;-26.480;29.234;2023-05-07T16:33:43;7;6;
79141;PMS5003;68550;-26.480;29.234;2023-05-07T16:36:09;7;7;
79141;PMS5003;68550;-26.480;29.234;2023-05-07T16:38:38;8;7;
79141;PMS5003;68550;-26.480;29.234;2023-05-07T16:40:59;5;5;
79141;PMS5003;68550;-26.480;29.234;2023-05-07T16:43:24;6;6;
79141;PMS5003;68550;-26.480;29.234;2023-05-07T16:45:50;6;6;
79141;PMS5003;68550;-26.480;29.234;2023-05-07T16:48:15;7;6;
79141;PMS5003;68550;-26.480;29.234;2023-05-07T16:50:49;4;4;
79141;PMS5003;68550;-26.480;29.234;2023-05-07T16:53:06;6;6;
79141;PMS5003;68550;-26.480;29.234;2023-05-07T17:00:24;6;6;
79141;PMS5003;68550;-26.480;29.234;2023-05-07T17:05:15;7;7;
79141;PMS5003;68550;-26.480;29.234;2023-05-07T17:07:45;5;5;
79141;PMS5003;68550;-26.480;29.234;2023-05-07T17:10:04;7;7;
79141;PMS5003;68550;-26.480;29.234;2023-05-07T17:12:36;7;6;
79141;PMS5003;68550;-26.480;29.234;2023-05-07T17:14:56;8;8;
79141;PMS5003;68550;-26.480;29.234;2023-05-07T17:17:24;8;8;
79141;PMS5003;68550;-26.480;29.234;2023-05-07T17:19:50;7;7;
79141;PMS5003;68550;-26.480;29.234;2023-05-07T17:22:17;9;9;
79141;PMS5003;68550;-26.480;29.234;2023-05-07T17:24:40;11;11;